sensor_id;sensor_type;location;lat;lon;timestamp;temperature;humidity
10812;DHT22;5458;51.496;7.334;2023-03-14T00:01:14;12.30;99.90
10812;DHT22;5458;51.496;7.334;2023-03-14T00:03:40;12.30;99.90
10812;DHT22;5458;51.496;7.334;2023-03-14T00:06:07;12.30;99.90
10812;DHT22;5458;51.496;7.334;2023-03-14T00:08:33;12.30;99.90
10812;DHT22;5458;51.496;7.334;2023-03-14T00:11:07;12.30;99.90
10812;DHT22;5458;51.496;7.334;2023-03-14T00:13:33;12.30;99.90
10812;DHT22;5458;51.496;7.334;2023-03-14T00:16:07;12.30;99.90
10812;DHT22;5458;51.496;7.334;2023-03-14T00:18:33;12.30;99.90
10812;DHT22;5458;51.496;7.334;2023-03-14T00:21:00;12.30;99.90
10812;DHT22;5458;51.496;7.334;2023-03-14T00:23:30;12.40;99.90
10812;DHT22;5458;51.496;7.334;2023-03-14T00:26:13;12.30;99.90
10812;DHT22;5458;51.496;7.334;2023-03-14T00:28:40;12.30;99.90
10812;DHT22;5458;51.496;7.334;2023-03-14T00:31:07;12.30;99.90
10812;DHT22;5458;51.496;7.334;2023-03-14T00:33:34;12.30;99.90
10812;DHT22;5458;51.496;7.334;2023-03-14T00:36:06;12.20;99.90
10812;DHT22;5458;51.496;7.334;2023-03-14T00:38:34;12.20;99.90
10812;DHT22;5458;51.496;7.334;2023-03-14T00:41:08;12.20;99.90
10812;DHT22;5458;51.496;7.334;2023-03-14T00:43:34;12.20;99.90
10812;DHT22;5458;51.496;7.334;2023-03-14T00:45:59;12.20;99.90
10812;DHT22;5458;51.496;7.334;2023-03-14T00:48:25;12.20;99.90
10812;DHT22;5458;51.496;7.334;2023-03-14T00:50:51;12.30;99.90
10812;DHT22;5458;51.496;7.334;2023-03-14T00:53:16;12.30;99.90
10812;DHT22;5458;51.496;7.334;2023-03-14T00:55:43;12.30;99.90
10812;DHT22;5458;51.496;7.334;2023-03-14T00:58:13;12.30;99.90
10812;DHT22;5458;51.496;7.334;2023-03-14T01:00:40;12.40;99.90
10812;DHT22;5458;51.496;7.334;2023-03-14T01:03:07;12.40;99.90
10812;DHT22;5458;51.496;7.334;2023-03-14T01:05:33;12.40;99.90
10812;DHT22;5458;51.496;7.334;2023-03-14T01:07:58;12.40;99.90
10812;DHT22;5458;51.496;7.334;2023-03-14T01:10:24;12.40;99.90
10812;DHT22;5458;51.496;7.334;2023-03-14T01:12:50;12.40;99.90
10812;DHT22;5458;51.496;7.334;2023-03-14T01:15:16;12.40;99.90
10812;DHT22;5458;51.496;7.334;2023-03-14T01:17:42;12.20;99.90
10812;DHT22;5458;51.496;7.334;2023-03-14T01:20:09;11.90;99.90
10812;DHT22;5458;51.496;7.334;2023-03-14T01:22:36;11.70;99.90
10812;DHT22;5458;51.496;7.334;2023-03-14T01:25:04;11.50;99.90
10812;DHT22;5458;51.496;7.334;2023-03-14T01:27:30;11.40;99.90
10812;DHT22;5458;51.496;7.334;2023-03-14T01:29:55;11.30;99.90
10812;DHT22;5458;51.496;7.334;2023-03-14T01:32:21;11.30;99.90
10812;DHT22;5458;51.496;7.334;2023-03-14T01:34:47;11.30;99.90
10812;DHT22;5458;51.496;7.334;2023-03-14T01:37:12;11.20;99.90
10812;DHT22;5458;51.496;7.334;2023-03-14T01:39:38;11.20;99.90
10812;DHT22;5458;51.496;7.334;2023-03-14T01:42:04;11.30;99.90
10812;DHT22;5458;51.496;7.334;2023-03-14T01:44:57;11.30;99.90
10812;DHT22;5458;51.496;7.334;2023-03-14T01:47:23;11.30;99.90
10812;DHT22;5458;51.496;7.334;2023-03-14T01:49:59;11.20;99.90
10812;DHT22;5458;51.496;7.334;2023-03-14T01:54:58;11.20;99.90
10812;DHT22;5458;51.496;7.334;2023-03-14T01:57:35;11.20;99.90
10812;DHT22;5458;51.496;7.334;2023-03-14T02:00:17;11.10;99.90
10812;DHT22;5458;51.496;7.334;2023-03-14T02:02:46;11.10;99.90
10812;DHT22;5458;51.496;7.334;2023-03-14T02:05:15;11.00;99.90
10812;DHT22;5458;51.496;7.334;2023-03-14T02:07:51;11.10;99.90
10812;DHT22;5458;51.496;7.334;2023-03-14T02:10:19;11.10;99.90
10812;DHT22;5458;51.496;7.334;2023-03-14T02:12:47;11.10;99.90
10812;DHT22;5458;51.496;7.334;2023-03-14T02:15:13;11.10;99.90
10812;DHT22;5458;51.496;7.334;2023-03-14T02:17:41;11.10;99.90
10812;DHT22;5458;51.496;7.334;2023-03-14T02:22:45;11.00;99.90
10812;DHT22;5458;51.496;7.334;2023-03-14T02:28:05;11.00;99.90
10812;DHT22;5458;51.496;7.334;2023-03-14T02:30:32;11.00;99.90
10812;DHT22;5458;51.496;7.334;2023-03-14T02:33:05;11.00;99.90
10812;DHT22;5458;51.496;7.334;2023-03-14T02:38:50;11.00;99.90
10812;DHT22;5458;51.496;7.334;2023-03-14T02:41:17;11.00;99.90
10812;DHT22;5458;51.496;7.334;2023-03-14T02:43:44;11.00;99.90
10812;DHT22;5458;51.496;7.334;2023-03-14T02:46:15;11.00;99.90
10812;DHT22;5458;51.496;7.334;2023-03-14T02:49:10;11.00;99.90
10812;DHT22;5458;51.496;7.334;2023-03-14T02:51:37;11.10;99.90
10812;DHT22;5458;51.496;7.334;2023-03-14T02:54:03;11.00;99.90
10812;DHT22;5458;51.496;7.334;2023-03-14T02:56:29;11.10;99.90
10812;DHT22;5458;51.496;7.334;2023-03-14T02:58:54;11.10;99.90
10812;DHT22;5458;51.496;7.334;2023-03-14T03:01:20;11.10;99.90
10812;DHT22;5458;51.496;7.334;2023-03-14T03:03:46;11.10;99.90
10812;DHT22;5458;51.496;7.334;2023-03-14T03:06:11;11.10;99.90
10812;DHT22;5458;51.496;7.334;2023-03-14T03:08:37;11.10;99.90
10812;DHT22;5458;51.496;7.334;2023-03-14T03:11:03;11.10;99.90
10812;DHT22;5458;51.496;7.334;2023-03-14T03:13:29;11.10;99.90
10812;DHT22;5458;51.496;7.334;2023-03-14T03:15:55;11.10;99.90
10812;DHT22;5458;51.496;7.334;2023-03-14T03:18:21;11.10;99.90
10812;DHT22;5458;51.496;7.334;2023-03-14T03:20:46;11.10;99.90
10812;DHT22;5458;51.496;7.334;2023-03-14T03:23:12;11.00;99.90
10812;DHT22;5458;51.496;7.334;2023-03-14T03:25:38;11.00;99.90
10812;DHT22;5458;51.496;7.334;2023-03-14T03:28:04;11.00;99.90
10812;DHT22;5458;51.496;7.334;2023-03-14T03:30:36;11.00;99.90
10812;DHT22;5458;51.496;7.334;2023-03-14T03:33:02;11.00;99.90
10812;DHT22;5458;51.496;7.334;2023-03-14T03:35:27;11.00;99.90
10812;DHT22;5458;51.496;7.334;2023-03-14T03:37:53;11.00;99.90
10812;DHT22;5458;51.496;7.334;2023-03-14T03:40:19;10.90;99.90
10812;DHT22;5458;51.496;7.334;2023-03-14T03:42:44;10.90;99.90
10812;DHT22;5458;51.496;7.334;2023-03-14T03:45:10;10.90;99.90
10812;DHT22;5458;51.496;7.334;2023-03-14T03:47:36;10.90;99.90
10812;DHT22;5458;51.496;7.334;2023-03-14T03:50:01;10.90;99.90
10812;DHT22;5458;51.496;7.334;2023-03-14T03:52:27;10.90;99.90
10812;DHT22;5458;51.496;7.334;2023-03-14T03:54:53;10.90;99.90
10812;DHT22;5458;51.496;7.334;2023-03-14T03:57:19;10.90;99.90
10812;DHT22;5458;51.496;7.334;2023-03-14T03:59:45;11.00;99.90
10812;DHT22;5458;51.496;7.334;2023-03-14T04:02:11;11.00;99.90
10812;DHT22;5458;51.496;7.334;2023-03-14T04:04:36;11.00;99.90
10812;DHT22;5458;51.496;7.334;2023-03-14T04:07:03;10.90;99.90
10812;DHT22;5458;51.496;7.334;2023-03-14T04:09:30;10.90;99.90
10812;DHT22;5458;51.496;7.334;2023-03-14T04:11:55;10.90;99.90
10812;DHT22;5458;51.496;7.334;2023-03-14T04:14:21;10.90;99.90
10812;DHT22;5458;51.496;7.334;2023-03-14T04:16:47;10.90;99.90
10812;DHT22;5458;51.496;7.334;2023-03-14T04:19:13;10.80;99.90
10812;DHT22;5458;51.496;7.334;2023-03-14T04:21:38;10.80;99.90
10812;DHT22;5458;51.496;7.334;2023-03-14T04:24:10;10.80;99.90
10812;DHT22;5458;51.496;7.334;2023-03-14T04:26:36;10.80;99.90
10812;DHT22;5458;51.496;7.334;2023-03-14T04:29:01;10.70;99.90
10812;DHT22;5458;51.496;7.334;2023-03-14T04:31:27;10.80;99.90
10812;DHT22;5458;51.496;7.334;2023-03-14T04:33:53;10.70;99.90
10812;DHT22;5458;51.496;7.334;2023-03-14T04:36:19;10.70;99.90
10812;DHT22;5458;51.496;7.334;2023-03-14T04:38:44;10.70;99.90
10812;DHT22;5458;51.496;7.334;2023-03-14T04:41:10;10.70;99.90
10812;DHT22;5458;51.496;7.334;2023-03-14T04:43:35;10.70;99.90
10812;DHT22;5458;51.496;7.334;2023-03-14T04:46:01;10.70;99.90
10812;DHT22;5458;51.496;7.334;2023-03-14T04:48:27;10.60;99.90
10812;DHT22;5458;51.496;7.334;2023-03-14T04:50:53;10.50;99.90
10812;DHT22;5458;51.496;7.334;2023-03-14T04:53:19;10.50;99.90
10812;DHT22;5458;51.496;7.334;2023-03-14T04:55:53;10.50;99.90
10812;DHT22;5458;51.496;7.334;2023-03-14T04:58:19;10.60;99.90
10812;DHT22;5458;51.496;7.334;2023-03-14T05:00:45;10.50;99.90
10812;DHT22;5458;51.496;7.334;2023-03-14T05:03:11;10.60;99.90
10812;DHT22;5458;51.496;7.334;2023-03-14T05:05:36;10.60;99.90
10812;DHT22;5458;51.496;7.334;2023-03-14T05:08:02;10.60;99.90
10812;DHT22;5458;51.496;7.334;2023-03-14T05:10:28;10.50;99.90
10812;DHT22;5458;51.496;7.334;2023-03-14T05:12:53;10.50;99.90
10812;DHT22;5458;51.496;7.334;2023-03-14T05:15:19;10.40;99.90
10812;DHT22;5458;51.496;7.334;2023-03-14T05:17:44;10.40;99.90
10812;DHT22;5458;51.496;7.334;2023-03-14T05:20:11;10.30;99.90
10812;DHT22;5458;51.496;7.334;2023-03-14T05:22:38;10.30;99.90
10812;DHT22;5458;51.496;7.334;2023-03-14T05:25:05;10.30;99.90
10812;DHT22;5458;51.496;7.334;2023-03-14T05:27:31;10.20;99.90
10812;DHT22;5458;51.496;7.334;2023-03-14T05:29:57;10.20;99.90
10812;DHT22;5458;51.496;7.334;2023-03-14T05:32:22;10.20;99.90
10812;DHT22;5458;51.496;7.334;2023-03-14T05:34:48;10.20;99.90
10812;DHT22;5458;51.496;7.334;2023-03-14T05:37:13;10.20;99.90
10812;DHT22;5458;51.496;7.334;2023-03-14T05:39:39;10.20;99.90
10812;DHT22;5458;51.496;7.334;2023-03-14T05:42:05;10.20;99.90
10812;DHT22;5458;51.496;7.334;2023-03-14T05:44:30;10.20;99.90
10812;DHT22;5458;51.496;7.334;2023-03-14T05:46:56;10.20;99.90
10812;DHT22;5458;51.496;7.334;2023-03-14T05:49:21;10.30;99.90
10812;DHT22;5458;51.496;7.334;2023-03-14T05:51:47;10.30;99.90
10812;DHT22;5458;51.496;7.334;2023-03-14T05:54:13;10.40;99.90
10812;DHT22;5458;51.496;7.334;2023-03-14T05:56:38;10.40;99.90
10812;DHT22;5458;51.496;7.334;2023-03-14T05:59:04;10.50;99.90
10812;DHT22;5458;51.496;7.334;2023-03-14T06:01:29;10.50;99.90
10812;DHT22;5458;51.496;7.334;2023-03-14T06:03:55;10.50;99.90
10812;DHT22;5458;51.496;7.334;2023-03-14T06:06:21;10.50;99.90
10812;DHT22;5458;51.496;7.334;2023-03-14T06:08:46;10.50;99.90
10812;DHT22;5458;51.496;7.334;2023-03-14T06:11:12;10.60;99.90
10812;DHT22;5458;51.496;7.334;2023-03-14T06:13:38;10.60;99.90
10812;DHT22;5458;51.496;7.334;2023-03-14T06:16:04;10.60;99.90
10812;DHT22;5458;51.496;7.334;2023-03-14T06:18:29;10.50;99.90
10812;DHT22;5458;51.496;7.334;2023-03-14T06:20:56;10.50;99.90
10812;DHT22;5458;51.496;7.334;2023-03-14T06:23:22;10.60;99.90
10812;DHT22;5458;51.496;7.334;2023-03-14T06:25:48;10.60;99.90
10812;DHT22;5458;51.496;7.334;2023-03-14T06:28:14;10.50;99.90
10812;DHT22;5458;51.496;7.334;2023-03-14T06:30:39;10.50;99.90
10812;DHT22;5458;51.496;7.334;2023-03-14T06:33:05;10.50;99.90
10812;DHT22;5458;51.496;7.334;2023-03-14T06:35:30;10.50;99.90
10812;DHT22;5458;51.496;7.334;2023-03-14T06:37:56;10.50;99.90
10812;DHT22;5458;51.496;7.334;2023-03-14T06:40:22;10.60;99.90
10812;DHT22;5458;51.496;7.334;2023-03-14T06:42:47;10.60;99.90
10812;DHT22;5458;51.496;7.334;2023-03-14T06:45:14;10.60;99.90
10812;DHT22;5458;51.496;7.334;2023-03-14T06:47:39;10.70;99.90
10812;DHT22;5458;51.496;7.334;2023-03-14T06:50:06;10.70;99.90
10812;DHT22;5458;51.496;7.334;2023-03-14T06:52:32;10.70;99.90
10812;DHT22;5458;51.496;7.334;2023-03-14T06:54:58;10.70;99.90
10812;DHT22;5458;51.496;7.334;2023-03-14T06:57:24;10.70;99.90
10812;DHT22;5458;51.496;7.334;2023-03-14T06:59:49;10.70;99.90
10812;DHT22;5458;51.496;7.334;2023-03-14T07:02:15;10.80;99.90
10812;DHT22;5458;51.496;7.334;2023-03-14T07:04:41;10.80;99.90
10812;DHT22;5458;51.496;7.334;2023-03-14T07:07:06;10.80;99.90
10812;DHT22;5458;51.496;7.334;2023-03-14T07:09:33;10.90;99.90
10812;DHT22;5458;51.496;7.334;2023-03-14T07:11:58;10.90;99.90
10812;DHT22;5458;51.496;7.334;2023-03-14T07:14:24;10.90;99.90
10812;DHT22;5458;51.496;7.334;2023-03-14T07:16:49;10.80;99.90
10812;DHT22;5458;51.496;7.334;2023-03-14T07:19:15;10.90;99.90
10812;DHT22;5458;51.496;7.334;2023-03-14T07:21:41;10.90;99.90
10812;DHT22;5458;51.496;7.334;2023-03-14T07:24:06;11.00;99.90
10812;DHT22;5458;51.496;7.334;2023-03-14T07:26:32;11.00;99.90
10812;DHT22;5458;51.496;7.334;2023-03-14T07:28:58;11.10;99.90
10812;DHT22;5458;51.496;7.334;2023-03-14T07:31:23;11.20;99.90
10812;DHT22;5458;51.496;7.334;2023-03-14T07:33:49;11.20;99.90
10812;DHT22;5458;51.496;7.334;2023-03-14T07:36:15;11.20;99.90
10812;DHT22;5458;51.496;7.334;2023-03-14T07:38:41;11.30;99.90
10812;DHT22;5458;51.496;7.334;2023-03-14T07:41:07;11.30;99.90
10812;DHT22;5458;51.496;7.334;2023-03-14T07:43:33;11.30;99.90
10812;DHT22;5458;51.496;7.334;2023-03-14T07:45:59;11.30;99.90
10812;DHT22;5458;51.496;7.334;2023-03-14T07:48:26;11.40;99.90
10812;DHT22;5458;51.496;7.334;2023-03-14T07:50:53;11.40;99.90
10812;DHT22;5458;51.496;7.334;2023-03-14T07:53:19;11.40;99.90
10812;DHT22;5458;51.496;7.334;2023-03-14T07:55:45;11.40;99.90
10812;DHT22;5458;51.496;7.334;2023-03-14T07:58:11;11.40;99.90
10812;DHT22;5458;51.496;7.334;2023-03-14T08:00:37;11.40;99.90
10812;DHT22;5458;51.496;7.334;2023-03-14T08:03:03;11.40;99.90
10812;DHT22;5458;51.496;7.334;2023-03-14T08:05:28;11.40;99.90
10812;DHT22;5458;51.496;7.334;2023-03-14T08:07:54;11.50;99.90
10812;DHT22;5458;51.496;7.334;2023-03-14T08:10:20;11.50;99.90
10812;DHT22;5458;51.496;7.334;2023-03-14T08:12:54;11.50;99.90
10812;DHT22;5458;51.496;7.334;2023-03-14T08:15:20;11.50;99.90
10812;DHT22;5458;51.496;7.334;2023-03-14T08:17:46;11.50;99.90
10812;DHT22;5458;51.496;7.334;2023-03-14T08:20:20;11.50;99.90
10812;DHT22;5458;51.496;7.334;2023-03-14T08:22:46;11.40;99.90
10812;DHT22;5458;51.496;7.334;2023-03-14T08:25:11;11.50;99.90
10812;DHT22;5458;51.496;7.334;2023-03-14T08:27:37;11.40;99.90
10812;DHT22;5458;51.496;7.334;2023-03-14T08:30:05;11.40;99.90
10812;DHT22;5458;51.496;7.334;2023-03-14T08:32:31;11.50;99.90
10812;DHT22;5458;51.496;7.334;2023-03-14T08:34:57;11.50;99.90
10812;DHT22;5458;51.496;7.334;2023-03-14T08:37:23;11.50;99.90
10812;DHT22;5458;51.496;7.334;2023-03-14T08:39:50;11.50;99.90
10812;DHT22;5458;51.496;7.334;2023-03-14T08:42:17;11.50;99.90
10812;DHT22;5458;51.496;7.334;2023-03-14T08:44:42;11.60;99.90
10812;DHT22;5458;51.496;7.334;2023-03-14T08:47:08;11.60;99.90
10812;DHT22;5458;51.496;7.334;2023-03-14T08:49:34;11.60;99.90
10812;DHT22;5458;51.496;7.334;2023-03-14T08:52:02;11.60;99.90
10812;DHT22;5458;51.496;7.334;2023-03-14T08:54:27;11.60;99.90
10812;DHT22;5458;51.496;7.334;2023-03-14T08:56:53;11.60;99.90
10812;DHT22;5458;51.496;7.334;2023-03-14T08:59:19;11.60;99.90
10812;DHT22;5458;51.496;7.334;2023-03-14T09:01:44;11.60;99.90
10812;DHT22;5458;51.496;7.334;2023-03-14T09:04:10;11.60;99.90
10812;DHT22;5458;51.496;7.334;2023-03-14T09:06:35;11.60;99.90
10812;DHT22;5458;51.496;7.334;2023-03-14T09:09:01;11.60;99.90
10812;DHT22;5458;51.496;7.334;2023-03-14T09:11:27;11.60;99.90
10812;DHT22;5458;51.496;7.334;2023-03-14T09:13:57;11.70;99.90
10812;DHT22;5458;51.496;7.334;2023-03-14T09:16:35;11.70;99.90
10812;DHT22;5458;51.496;7.334;2023-03-14T09:19:12;11.70;99.90
10812;DHT22;5458;51.496;7.334;2023-03-14T09:21:38;11.60;99.90
10812;DHT22;5458;51.496;7.334;2023-03-14T09:24:05;11.60;99.90
10812;DHT22;5458;51.496;7.334;2023-03-14T09:26:36;11.60;99.90
10812;DHT22;5458;51.496;7.334;2023-03-14T09:29:08;11.60;99.90
10812;DHT22;5458;51.496;7.334;2023-03-14T09:31:34;11.60;99.90
10812;DHT22;5458;51.496;7.334;2023-03-14T09:34:03;11.60;99.90
10812;DHT22;5458;51.496;7.334;2023-03-14T09:36:30;11.50;99.90
10812;DHT22;5458;51.496;7.334;2023-03-14T09:39:07;11.40;99.90
10812;DHT22;5458;51.496;7.334;2023-03-14T09:41:51;11.40;99.90
10812;DHT22;5458;51.496;7.334;2023-03-14T09:44:21;11.50;99.90
10812;DHT22;5458;51.496;7.334;2023-03-14T09:46:53;11.50;99.90
10812;DHT22;5458;51.496;7.334;2023-03-14T09:49:52;11.40;99.90
10812;DHT22;5458;51.496;7.334;2023-03-14T09:52:48;11.30;99.90
10812;DHT22;5458;51.496;7.334;2023-03-14T09:55:19;11.10;99.90
10812;DHT22;5458;51.496;7.334;2023-03-14T09:57:48;11.00;99.90
10812;DHT22;5458;51.496;7.334;2023-03-14T10:00:22;11.00;99.90
10812;DHT22;5458;51.496;7.334;2023-03-14T10:02:56;10.90;99.90
10812;DHT22;5458;51.496;7.334;2023-03-14T10:05:24;11.00;99.90
10812;DHT22;5458;51.496;7.334;2023-03-14T10:07:50;11.00;99.90
10812;DHT22;5458;51.496;7.334;2023-03-14T10:10:19;10.80;99.90
10812;DHT22;5458;51.496;7.334;2023-03-14T10:12:46;10.70;99.90
10812;DHT22;5458;51.496;7.334;2023-03-14T10:15:15;10.60;99.90
10812;DHT22;5458;51.496;7.334;2023-03-14T10:17:52;10.50;99.90
10812;DHT22;5458;51.496;7.334;2023-03-14T10:23:01;10.50;99.90
10812;DHT22;5458;51.496;7.334;2023-03-14T10:25:30;10.60;99.90
10812;DHT22;5458;51.496;7.334;2023-03-14T10:27:56;10.60;99.90
10812;DHT22;5458;51.496;7.334;2023-03-14T10:30:38;10.60;99.90
10812;DHT22;5458;51.496;7.334;2023-03-14T10:33:21;10.40;99.90
10812;DHT22;5458;51.496;7.334;2023-03-14T10:35:55;10.30;99.90
10812;DHT22;5458;51.496;7.334;2023-03-14T10:38:27;10.20;99.90
10812;DHT22;5458;51.496;7.334;2023-03-14T10:40:54;10.00;99.90
10812;DHT22;5458;51.496;7.334;2023-03-14T10:43:24;10.10;99.90
10812;DHT22;5458;51.496;7.334;2023-03-14T10:45:56;10.00;99.90
10812;DHT22;5458;51.496;7.334;2023-03-14T10:48:41;10.00;99.90
10812;DHT22;5458;51.496;7.334;2023-03-14T10:53:55;9.90;99.90
10812;DHT22;5458;51.496;7.334;2023-03-14T10:56:23;9.90;99.90
10812;DHT22;5458;51.496;7.334;2023-03-14T10:58:57;9.80;99.90
10812;DHT22;5458;51.496;7.334;2023-03-14T11:07:11;9.50;99.90
10812;DHT22;5458;51.496;7.334;2023-03-14T11:10:31;9.50;99.90
10812;DHT22;5458;51.496;7.334;2023-03-14T11:21:40;9.50;99.90
10812;DHT22;5458;51.496;7.334;2023-03-14T11:26:53;9.60;99.90
10812;DHT22;5458;51.496;7.334;2023-03-14T11:29:28;9.50;99.90
10812;DHT22;5458;51.496;7.334;2023-03-14T11:31:58;9.40;99.90
10812;DHT22;5458;51.496;7.334;2023-03-14T11:34:29;9.30;99.90
10812;DHT22;5458;51.496;7.334;2023-03-14T11:37:06;9.20;99.90
10812;DHT22;5458;51.496;7.334;2023-03-14T11:39:45;9.30;99.90
10812;DHT22;5458;51.496;7.334;2023-03-14T11:42:17;9.60;99.90
10812;DHT22;5458;51.496;7.334;2023-03-14T11:44:47;9.80;99.90
10812;DHT22;5458;51.496;7.334;2023-03-14T11:47:20;9.80;99.90
10812;DHT22;5458;51.496;7.334;2023-03-14T11:52:46;9.60;99.90
10812;DHT22;5458;51.496;7.334;2023-03-14T11:55:32;9.50;99.90
10812;DHT22;5458;51.496;7.334;2023-03-14T11:58:09;9.40;99.90
10812;DHT22;5458;51.496;7.334;2023-03-14T12:00:38;9.20;99.90
10812;DHT22;5458;51.496;7.334;2023-03-14T12:11:30;9.20;99.90
10812;DHT22;5458;51.496;7.334;2023-03-14T12:13:57;9.20;99.90
10812;DHT22;5458;51.496;7.334;2023-03-14T12:18:48;9.20;99.90
10812;DHT22;5458;51.496;7.334;2023-03-14T12:21:14;9.10;99.90
10812;DHT22;5458;51.496;7.334;2023-03-14T12:26:18;8.90;99.90
10812;DHT22;5458;51.496;7.334;2023-03-14T12:28:50;8.90;99.90
10812;DHT22;5458;51.496;7.334;2023-03-14T12:42:02;9.50;99.90
10812;DHT22;5458;51.496;7.334;2023-03-14T12:49:43;10.10;99.90
10812;DHT22;5458;51.496;7.334;2023-03-14T12:52:33;10.30;99.90
10812;DHT22;5458;51.496;7.334;2023-03-14T12:55:17;10.30;99.90
10812;DHT22;5458;51.496;7.334;2023-03-14T13:00:31;10.30;99.90
10812;DHT22;5458;51.496;7.334;2023-03-14T13:05:58;10.10;99.90
10812;DHT22;5458;51.496;7.334;2023-03-14T13:08:44;9.80;99.90
10812;DHT22;5458;51.496;7.334;2023-03-14T13:11:16;9.60;99.90
10812;DHT22;5458;51.496;7.334;2023-03-14T13:13:57;9.30;99.90
10812;DHT22;5458;51.496;7.334;2023-03-14T13:16:24;9.20;99.90
10812;DHT22;5458;51.496;7.334;2023-03-14T13:18:59;9.20;99.90
10812;DHT22;5458;51.496;7.334;2023-03-14T13:21:27;9.10;99.90
10812;DHT22;5458;51.496;7.334;2023-03-14T13:24:21;9.00;99.90
10812;DHT22;5458;51.496;7.334;2023-03-14T13:26:47;9.00;99.90
10812;DHT22;5458;51.496;7.334;2023-03-14T13:31:56;9.10;99.90
10812;DHT22;5458;51.496;7.334;2023-03-14T13:34:28;9.20;99.90
10812;DHT22;5458;51.496;7.334;2023-03-14T13:36:54;9.20;99.90
10812;DHT22;5458;51.496;7.334;2023-03-14T13:39:22;9.20;99.90
10812;DHT22;5458;51.496;7.334;2023-03-14T13:41:51;9.20;99.90
10812;DHT22;5458;51.496;7.334;2023-03-14T13:44:29;9.10;99.90
10812;DHT22;5458;51.496;7.334;2023-03-14T13:47:00;9.00;99.90
10812;DHT22;5458;51.496;7.334;2023-03-14T13:49:28;8.80;99.90
10812;DHT22;5458;51.496;7.334;2023-03-14T13:51:56;8.80;99.90
10812;DHT22;5458;51.496;7.334;2023-03-14T13:54:22;8.80;99.90
10812;DHT22;5458;51.496;7.334;2023-03-14T13:56:49;8.80;99.90
10812;DHT22;5458;51.496;7.334;2023-03-14T13:59:26;8.80;99.90
10812;DHT22;5458;51.496;7.334;2023-03-14T14:01:53;8.90;99.90
10812;DHT22;5458;51.496;7.334;2023-03-14T14:04:21;9.20;99.90
10812;DHT22;5458;51.496;7.334;2023-03-14T14:06:50;9.40;99.90
10812;DHT22;5458;51.496;7.334;2023-03-14T14:09:21;9.60;99.90
10812;DHT22;5458;51.496;7.334;2023-03-14T14:12:15;9.80;99.90
10812;DHT22;5458;51.496;7.334;2023-03-14T14:17:16;10.00;99.90
10812;DHT22;5458;51.496;7.334;2023-03-14T14:19:43;9.80;99.90
10812;DHT22;5458;51.496;7.334;2023-03-14T14:22:10;9.80;99.90
10812;DHT22;5458;51.496;7.334;2023-03-14T14:24:36;9.80;99.90
10812;DHT22;5458;51.496;7.334;2023-03-14T14:27:12;9.80;99.90
10812;DHT22;5458;51.496;7.334;2023-03-14T14:29:39;9.90;99.90
10812;DHT22;5458;51.496;7.334;2023-03-14T14:34:56;9.80;99.90
10812;DHT22;5458;51.496;7.334;2023-03-14T14:37:23;9.80;99.90
10812;DHT22;5458;51.496;7.334;2023-03-14T14:39:51;10.00;99.90
10812;DHT22;5458;51.496;7.334;2023-03-14T14:42:19;10.00;99.90
10812;DHT22;5458;51.496;7.334;2023-03-14T14:44:47;10.10;99.90
10812;DHT22;5458;51.496;7.334;2023-03-14T14:47:18;10.10;99.90
10812;DHT22;5458;51.496;7.334;2023-03-14T14:49:47;10.10;99.90
10812;DHT22;5458;51.496;7.334;2023-03-14T14:52:19;9.90;99.40
10812;DHT22;5458;51.496;7.334;2023-03-14T14:54:48;9.90;98.90
10812;DHT22;5458;51.496;7.334;2023-03-14T14:57:24;9.80;98.40
10812;DHT22;5458;51.496;7.334;2023-03-14T14:59:51;9.70;98.30
10812;DHT22;5458;51.496;7.334;2023-03-14T15:04:53;9.60;98.20
10812;DHT22;5458;51.496;7.334;2023-03-14T15:07:18;9.60;98.50
10812;DHT22;5458;51.496;7.334;2023-03-14T15:09:44;9.60;98.20
10812;DHT22;5458;51.496;7.334;2023-03-14T15:12:09;9.70;98.70
10812;DHT22;5458;51.496;7.334;2023-03-14T15:14:35;9.70;97.30
10812;DHT22;5458;51.496;7.334;2023-03-14T15:17:01;9.60;97.00
10812;DHT22;5458;51.496;7.334;2023-03-14T15:19:27;9.70;96.80
10812;DHT22;5458;51.496;7.334;2023-03-14T15:21:54;9.70;96.40
10812;DHT22;5458;51.496;7.334;2023-03-14T15:24:21;9.70;95.70
10812;DHT22;5458;51.496;7.334;2023-03-14T15:26:46;9.70;95.90
10812;DHT22;5458;51.496;7.334;2023-03-14T15:29:12;9.60;96.30
10812;DHT22;5458;51.496;7.334;2023-03-14T15:31:41;9.60;95.90
10812;DHT22;5458;51.496;7.334;2023-03-14T15:34:08;9.50;96.20
10812;DHT22;5458;51.496;7.334;2023-03-14T15:36:34;9.40;96.70
10812;DHT22;5458;51.496;7.334;2023-03-14T15:39:05;9.30;96.70
10812;DHT22;5458;51.496;7.334;2023-03-14T15:41:31;9.40;96.70
10812;DHT22;5458;51.496;7.334;2023-03-14T15:43:57;9.40;96.40
10812;DHT22;5458;51.496;7.334;2023-03-14T15:46:23;9.30;95.50
10812;DHT22;5458;51.496;7.334;2023-03-14T15:48:50;9.20;94.80
10812;DHT22;5458;51.496;7.334;2023-03-14T15:51:16;9.10;94.00
10812;DHT22;5458;51.496;7.334;2023-03-14T15:53:42;9.00;94.00
10812;DHT22;5458;51.496;7.334;2023-03-14T15:56:14;9.10;94.00
10812;DHT22;5458;51.496;7.334;2023-03-14T15:58:40;9.00;93.40
10812;DHT22;5458;51.496;7.334;2023-03-14T16:01:07;9.00;93.80
10812;DHT22;5458;51.496;7.334;2023-03-14T16:03:36;9.00;93.70
10812;DHT22;5458;51.496;7.334;2023-03-14T16:06:02;9.00;93.70
10812;DHT22;5458;51.496;7.334;2023-03-14T16:08:28;9.10;94.10
10812;DHT22;5458;51.496;7.334;2023-03-14T16:11:00;9.00;94.40
10812;DHT22;5458;51.496;7.334;2023-03-14T16:13:26;8.90;93.70
10812;DHT22;5458;51.496;7.334;2023-03-14T16:16:00;8.90;93.50
10812;DHT22;5458;51.496;7.334;2023-03-14T16:18:31;8.70;92.00
10812;DHT22;5458;51.496;7.334;2023-03-14T16:20:59;8.60;90.70
10812;DHT22;5458;51.496;7.334;2023-03-14T16:23:26;8.40;86.60
10812;DHT22;5458;51.496;7.334;2023-03-14T16:25:53;8.40;87.00
10812;DHT22;5458;51.496;7.334;2023-03-14T16:28:19;8.40;86.00
10812;DHT22;5458;51.496;7.334;2023-03-14T16:30:45;8.50;86.50
10812;DHT22;5458;51.496;7.334;2023-03-14T16:33:12;8.50;88.70
10812;DHT22;5458;51.496;7.334;2023-03-14T16:35:39;8.50;85.60
10812;DHT22;5458;51.496;7.334;2023-03-14T16:38:05;8.50;84.40
10812;DHT22;5458;51.496;7.334;2023-03-14T16:40:30;8.30;81.00
10812;DHT22;5458;51.496;7.334;2023-03-14T16:42:56;8.20;80.80
10812;DHT22;5458;51.496;7.334;2023-03-14T16:45:22;8.20;83.40
10812;DHT22;5458;51.496;7.334;2023-03-14T16:47:47;8.20;84.00
10812;DHT22;5458;51.496;7.334;2023-03-14T16:50:13;8.20;85.10
10812;DHT22;5458;51.496;7.334;2023-03-14T16:52:38;8.20;85.60
10812;DHT22;5458;51.496;7.334;2023-03-14T16:55:04;8.20;86.50
10812;DHT22;5458;51.496;7.334;2023-03-14T16:57:32;8.20;86.80
10812;DHT22;5458;51.496;7.334;2023-03-14T16:59:57;8.10;87.90
10812;DHT22;5458;51.496;7.334;2023-03-14T17:02:23;8.10;88.70
10812;DHT22;5458;51.496;7.334;2023-03-14T17:04:49;8.10;88.40
10812;DHT22;5458;51.496;7.334;2023-03-14T17:07:15;8.10;88.00
10812;DHT22;5458;51.496;7.334;2023-03-14T17:09:40;8.10;87.90
10812;DHT22;5458;51.496;7.334;2023-03-14T17:12:06;8.10;87.90
10812;DHT22;5458;51.496;7.334;2023-03-14T17:14:32;8.10;87.80
10812;DHT22;5458;51.496;7.334;2023-03-14T17:16:57;8.10;88.00
10812;DHT22;5458;51.496;7.334;2023-03-14T17:19:23;8.10;87.00